createdAt,value
2022-08-30T00:00:12.572Z,0.85
2022-08-30T00:02:39.301Z,0.90
2022-08-30T00:05:06.217Z,0.90
2022-08-30T00:07:33.100Z,0.95
2022-08-30T00:09:59.892Z,1.00
2022-08-30T00:12:27.036Z,0.95
2022-08-30T00:14:53.924Z,0.93
2022-08-30T00:17:20.539Z,0.90
2022-08-30T00:19:47.236Z,0.98
2022-08-30T00:22:13.911Z,0.95
2022-08-30T00:24:40.581Z,0.90
2022-08-30T00:27:07.185Z,0.88
2022-08-30T00:29:33.809Z,0.80
2022-08-30T00:32:02.489Z,0.98
2022-08-30T00:34:29.157Z,1.00
2022-08-30T00:36:55.747Z,0.90
2022-08-30T00:39:22.523Z,1.25
2022-08-30T00:41:49.203Z,0.73
2022-08-30T00:44:15.783Z,0.80
2022-08-30T00:46:42.461Z,1.05
2022-08-30T00:49:11.562Z,0.80
2022-08-30T00:51:38.400Z,1.13
2022-08-30T00:54:05.573Z,1.00
2022-08-30T00:56:33.181Z,0.90
2022-08-30T00:59:04.795Z,0.93
2022-08-30T01:01:33.952Z,0.80
2022-08-30T01:04:01.208Z,0.98
2022-08-30T01:06:32.497Z,0.95
2022-08-30T01:09:00.637Z,1.00
2022-08-30T01:11:28.243Z,0.88
2022-08-30T01:13:56.181Z,0.90
2022-08-30T01:16:23.121Z,1.02
2022-08-30T01:18:51.396Z,1.00
2022-08-30T01:21:24.807Z,1.13
2022-08-30T01:23:53.892Z,1.10
2022-08-30T01:26:22.037Z,1.27
2022-08-30T01:28:52.484Z,1.30
2022-08-30T01:31:19.618Z,1.02
2022-08-30T01:33:46.281Z,1.13
2022-08-30T01:36:15.050Z,1.10
2022-08-30T01:38:50.820Z,0.95
2022-08-30T01:41:28.670Z,0.90
2022-08-30T01:43:59.128Z,1.02
2022-08-30T01:46:36.122Z,0.98
2022-08-30T01:49:06.271Z,1.20
2022-08-30T01:51:32.861Z,1.10
2022-08-30T01:53:59.940Z,1.10
2022-08-30T01:56:28.412Z,1.25
2022-08-30T02:01:27.393Z,1.20
2022-08-30T02:03:56.050Z,1.10
2022-08-30T02:08:49.656Z,1.20
2022-08-30T02:11:16.732Z,1.33
2022-08-30T02:13:44.584Z,1.33
2022-08-30T02:16:16.141Z,1.42
2022-08-30T02:18:43.012Z,1.45
2022-08-30T02:21:10.267Z,1.60
2022-08-30T02:23:37.152Z,1.40
2022-08-30T02:26:04.328Z,1.30
2022-08-30T02:28:30.976Z,1.50
2022-08-30T02:30:57.621Z,1.70
2022-08-30T02:33:24.293Z,1.42
2022-08-30T02:35:50.867Z,1.85
2022-08-30T02:38:19.915Z,1.42
2022-08-30T02:40:47.040Z,1.70
2022-08-30T02:43:13.673Z,1.38
2022-08-30T02:45:40.371Z,1.52
2022-08-30T02:48:07.210Z,1.92
2022-08-30T02:50:33.934Z,1.48
2022-08-30T02:53:00.888Z,1.50
2022-08-30T02:55:27.483Z,1.80
2022-08-30T02:57:54.112Z,1.33
2022-08-30T03:00:21.351Z,1.63
2022-08-30T03:02:49.362Z,1.50
2022-08-30T03:05:16.951Z,1.67
2022-08-30T03:07:43.905Z,1.30
2022-08-30T03:10:11.014Z,1.52
2022-08-30T03:12:37.841Z,1.83
2022-08-30T03:15:06.395Z,1.70
2022-08-30T03:20:00.905Z,1.50
2022-08-30T03:22:28.018Z,1.60
2022-08-30T03:24:59.478Z,1.30
2022-08-30T03:27:26.888Z,1.63
2022-08-30T03:29:53.506Z,1.52
2022-08-30T03:32:20.273Z,1.50
2022-08-30T03:34:46.947Z,1.58
2022-08-30T03:37:13.569Z,1.60
2022-08-30T03:39:40.491Z,1.70
2022-08-30T03:42:07.606Z,1.60
2022-08-30T03:44:35.607Z,1.60
2022-08-30T03:47:03.866Z,1.90
2022-08-30T03:49:31.345Z,1.83
2022-08-30T03:51:57.958Z,1.80
2022-08-30T03:54:24.916Z,2.10
2022-08-30T03:56:51.920Z,1.80
2022-08-30T03:59:18.644Z,1.80
2022-08-30T04:01:45.921Z,1.80
2022-08-30T04:04:14.572Z,1.75
2022-08-30T04:06:44.100Z,2.38
2022-08-30T04:09:10.872Z,2.13
2022-08-30T04:11:38.032Z,2.20
2022-08-30T04:14:04.657Z,2.05
2022-08-30T04:16:31.327Z,2.03
2022-08-30T04:18:58.024Z,2.20
2022-08-30T04:21:26.358Z,1.60
2022-08-30T04:23:52.955Z,1.88
2022-08-30T04:26:19.893Z,2.53
2022-08-30T04:28:46.628Z,2.42
2022-08-30T04:31:16.795Z,2.05
2022-08-30T04:33:44.558Z,2.30
2022-08-30T04:36:11.640Z,2.90
2022-08-30T04:38:39.374Z,2.50
2022-08-30T04:41:19.355Z,2.55
2022-08-30T04:43:47.496Z,2.55
2022-08-30T04:46:14.584Z,2.85
2022-08-30T04:48:41.204Z,2.17
2022-08-30T04:51:10.305Z,2.40
2022-08-30T04:53:37.198Z,2.55
2022-08-30T04:56:12.322Z,2.88
2022-08-30T04:58:39.095Z,2.47
2022-08-30T05:01:05.892Z,1.98
2022-08-30T05:03:36.670Z,2.00
2022-08-30T05:06:03.387Z,2.53
2022-08-30T05:08:29.963Z,2.65
2022-08-30T05:10:56.552Z,2.50
2022-08-30T05:13:34.982Z,2.60
2022-08-30T05:16:03.437Z,2.63
2022-08-30T05:18:30.197Z,2.60
2022-08-30T05:21:13.794Z,2.65
2022-08-30T05:23:41.048Z,3.05
2022-08-30T05:26:19.926Z,2.40
2022-08-30T05:28:47.422Z,3.88
2022-08-30T05:31:25.670Z,3.47
2022-08-30T05:33:54.012Z,3.15
2022-08-30T05:36:23.820Z,3.30
2022-08-30T05:38:50.618Z,3.45
2022-08-30T05:41:19.884Z,3.58
2022-08-30T05:43:46.985Z,2.83
2022-08-30T05:46:19.339Z,3.03
2022-08-30T05:48:46.853Z,3.40
2022-08-30T05:51:24.813Z,2.92
2022-08-30T05:53:53.219Z,3.83
2022-08-30T05:56:24.800Z,3.58
2022-08-30T05:58:52.474Z,3.88
2022-08-30T06:01:25.036Z,4.20
2022-08-30T06:03:52.908Z,3.75
2022-08-30T06:06:19.550Z,3.85
2022-08-30T06:08:47.444Z,3.33
2022-08-30T06:11:16.461Z,4.10
2022-08-30T06:13:43.128Z,4.00
2022-08-30T06:16:14.075Z,4.40
2022-08-30T06:18:40.956Z,4.68
2022-08-30T06:21:07.640Z,4.65
2022-08-30T06:23:35.212Z,4.90
2022-08-30T06:26:06.213Z,4.78
2022-08-30T06:28:33.314Z,4.35
2022-08-30T06:31:00.073Z,5.22
2022-08-30T06:33:26.856Z,4.35
2022-08-30T06:35:59.198Z,4.00
2022-08-30T06:38:27.015Z,5.25
2022-08-30T06:40:53.657Z,4.47
2022-08-30T06:43:20.910Z,3.72
2022-08-30T06:45:47.479Z,3.58
2022-08-30T06:48:14.133Z,4.03
2022-08-30T06:50:42.166Z,5.00
2022-08-30T06:53:09.474Z,4.57
2022-08-30T06:55:36.689Z,5.27
2022-08-30T06:58:05.364Z,5.80
2022-08-30T07:00:31.945Z,4.45
2022-08-30T07:02:59.045Z,5.10
2022-08-30T07:05:25.734Z,6.78
2022-08-30T07:07:54.264Z,4.68
2022-08-30T07:12:48.851Z,4.32
2022-08-30T07:15:15.975Z,5.50
2022-08-30T07:18:01.091Z,4.93
2022-08-30T07:20:27.736Z,4.43
2022-08-30T07:23:06.796Z,4.50
2022-08-30T07:25:33.425Z,4.80
2022-08-30T07:28:00.016Z,4.22
2022-08-30T07:30:26.630Z,3.65
2022-08-30T07:32:53.281Z,3.45
2022-08-30T07:35:19.851Z,5.07
2022-08-30T07:37:46.508Z,3.80
2022-08-30T07:40:13.308Z,3.53
2022-08-30T07:42:41.061Z,4.15
2022-08-30T07:45:09.010Z,3.00
2022-08-30T07:47:35.950Z,3.17
2022-08-30T07:50:03.257Z,2.42
2022-08-30T07:52:30.723Z,2.85
2022-08-30T07:54:58.607Z,2.27
2022-08-30T07:57:25.952Z,2.67
2022-08-30T07:59:52.930Z,2.63
2022-08-30T08:02:20.221Z,2.40
2022-08-30T08:04:48.604Z,2.17
2022-08-30T08:07:15.410Z,1.85
2022-08-30T08:09:42.027Z,1.67
2022-08-30T08:12:09.447Z,1.95
2022-08-30T08:14:36.545Z,1.63
2022-08-30T08:17:05.010Z,2.00
2022-08-30T08:22:20.985Z,1.50
2022-08-30T08:24:46.932Z,1.98
2022-08-30T08:27:13.581Z,1.90
2022-08-30T08:29:40.205Z,1.67
2022-08-30T08:32:06.991Z,1.95
2022-08-30T08:34:35.198Z,2.47
2022-08-30T08:37:01.849Z,2.20
2022-08-30T08:39:28.496Z,2.08
2022-08-30T08:42:04.406Z,2.20
2022-08-30T08:44:55.275Z,2.03
2022-08-30T08:47:30.755Z,1.52
2022-08-30T08:50:00.238Z,2.25
2022-08-30T08:52:58.111Z,2.08
2022-08-30T08:55:24.793Z,1.50
2022-08-30T08:57:52.548Z,1.50
2022-08-30T09:00:19.399Z,2.03
2022-08-30T09:02:55.698Z,1.40
2022-08-30T09:05:26.042Z,1.67
2022-08-30T09:08:01.266Z,2.03
2022-08-30T09:10:49.288Z,1.77
2022-08-30T09:13:19.025Z,1.92
2022-08-30T09:15:47.387Z,1.45
2022-08-30T09:18:19.900Z,2.17
2022-08-30T09:20:51.643Z,1.50
2022-08-30T09:23:30.042Z,1.52
2022-08-30T09:28:28.942Z,1.35
2022-08-30T09:31:03.985Z,1.63
2022-08-30T09:33:31.068Z,1.30
2022-08-30T09:36:35.149Z,1.23
2022-08-30T09:39:04.997Z,1.10
2022-08-30T09:41:40.182Z,1.50
2022-08-30T09:44:24.233Z,1.38
2022-08-30T09:46:53.860Z,1.20
2022-08-30T09:49:39.068Z,1.27
2022-08-30T09:52:24.624Z,1.40
2022-08-30T09:54:51.143Z,1.20
2022-08-30T09:57:42.139Z,1.17
2022-08-30T10:00:15.905Z,1.33
2022-08-30T10:02:48.653Z,1.20
2022-08-30T10:05:33.403Z,1.40
2022-08-30T10:07:59.925Z,1.20
2022-08-30T10:10:29.364Z,1.20
2022-08-30T10:13:02.035Z,1.10
2022-08-30T10:15:58.325Z,1.70
2022-08-30T10:18:31.097Z,1.20
2022-08-30T10:21:07.142Z,1.20
2022-08-30T10:23:59.828Z,1.50
2022-08-30T10:26:39.664Z,1.42
2022-08-30T10:29:10.269Z,1.27
2022-08-30T10:31:46.796Z,1.80
2022-08-30T10:34:34.031Z,1.73
2022-08-30T10:37:25.193Z,1.20
2022-08-30T10:39:56.185Z,2.15
2022-08-30T10:42:26.487Z,1.60
2022-08-30T10:44:59.926Z,2.10
2022-08-30T10:47:35.432Z,1.70
2022-08-30T10:50:11.136Z,1.40
2022-08-30T10:52:47.458Z,1.33
2022-08-30T10:55:19.384Z,1.70
2022-08-30T10:57:46.534Z,1.40
2022-08-30T11:00:16.664Z,1.90
2022-08-30T11:02:55.241Z,1.48
2022-08-30T11:05:52.792Z,1.30
2022-08-30T11:08:47.104Z,1.40
2022-08-30T11:11:40.887Z,1.05
2022-08-30T11:14:10.871Z,1.13
2022-08-30T11:16:40.987Z,1.58
2022-08-30T11:19:20.687Z,1.75
2022-08-30T11:21:48.168Z,1.50
2022-08-30T11:24:24.885Z,1.50
2022-08-30T11:26:58.345Z,1.70
2022-08-30T11:29:31.788Z,1.50
2022-08-30T11:32:20.348Z,2.40
2022-08-30T11:34:46.892Z,2.63
2022-08-30T11:37:35.910Z,2.40
2022-08-30T11:40:24.928Z,2.30
2022-08-30T11:42:54.400Z,1.92
2022-08-30T11:45:25.415Z,1.75
2022-08-30T11:47:59.789Z,1.73
2022-08-30T11:50:33.442Z,2.00
2022-08-30T11:53:09.442Z,1.90
2022-08-30T11:56:02.244Z,1.58
2022-08-30T11:58:34.453Z,1.90
2022-08-30T12:01:42.084Z,1.60
2022-08-30T12:04:19.809Z,1.58
2022-08-30T12:07:00.426Z,2.03
2022-08-30T12:09:26.969Z,1.70
2022-08-30T12:12:09.492Z,1.80
2022-08-30T12:14:40.942Z,1.80
2022-08-30T12:18:03.412Z,1.50
2022-08-30T12:20:43.271Z,1.77
2022-08-30T12:23:21.566Z,1.42
2022-08-30T12:28:21.568Z,1.60
2022-08-30T12:30:49.739Z,1.45
2022-08-30T12:33:39.517Z,1.58
2022-08-30T12:36:07.252Z,1.30
2022-08-30T12:38:33.861Z,1.25
2022-08-30T12:41:02.485Z,1.60
2022-08-30T12:43:40.748Z,1.50
2022-08-30T12:46:11.963Z,1.30
2022-08-30T12:48:40.836Z,1.20
2022-08-30T12:51:07.630Z,1.27
2022-08-30T12:53:42.040Z,1.10
2022-08-30T12:56:11.750Z,1.55
2022-08-30T12:58:58.561Z,1.20
2022-08-30T13:01:26.486Z,1.20
2022-08-30T13:03:57.548Z,1.25
2022-08-30T13:06:50.604Z,1.27
2022-08-30T13:09:41.395Z,1.55
2022-08-30T13:12:21.699Z,1.35
2022-08-30T13:14:49.887Z,1.20
2022-08-30T13:17:19.065Z,1.00
2022-08-30T13:19:58.216Z,1.17
2022-08-30T13:22:41.814Z,1.10
2022-08-30T13:25:10.518Z,1.20
2022-08-30T13:30:13.379Z,1.10
2022-08-30T13:32:41.147Z,1.20
2022-08-30T13:35:08.499Z,1.33
2022-08-30T13:37:51.939Z,1.40
2022-08-30T13:40:21.126Z,1.25
2022-08-30T13:42:48.635Z,1.00
2022-08-30T13:50:30.436Z,0.93
2022-08-30T13:52:57.469Z,0.93
2022-08-30T13:55:24.144Z,1.10
2022-08-30T13:57:54.460Z,1.10
2022-08-30T14:00:23.471Z,0.90
2022-08-30T14:02:54.701Z,0.90
2022-08-30T14:05:50.471Z,1.00
2022-08-30T14:11:11.919Z,1.00
2022-08-30T14:18:55.653Z,1.10
2022-08-30T14:26:23.725Z,1.00
2022-08-30T14:28:51.932Z,1.00
2022-08-30T14:31:19.957Z,1.20
2022-08-30T14:33:47.257Z,1.10
2022-08-30T14:36:15.565Z,1.10
2022-08-30T14:38:43.434Z,0.90
2022-08-30T14:41:11.028Z,1.00
2022-08-30T14:43:40.356Z,0.90
2022-08-30T14:46:08.538Z,1.10
2022-08-30T14:48:36.739Z,0.85
2022-08-30T14:51:03.999Z,0.80
2022-08-30T14:53:30.598Z,0.85
2022-08-30T14:55:57.187Z,1.00
2022-08-30T14:58:23.972Z,0.95
2022-08-30T15:00:52.253Z,0.93
2022-08-30T15:05:52.858Z,1.00
2022-08-30T15:08:20.076Z,0.93
2022-08-30T15:10:47.568Z,0.80
2022-08-30T15:13:14.302Z,1.03
2022-08-30T15:15:43.076Z,0.85
2022-08-30T15:18:10.234Z,0.90
2022-08-30T15:20:37.776Z,0.90
2022-08-30T15:23:05.009Z,0.90
2022-08-30T15:25:31.729Z,1.35
2022-08-30T15:27:58.348Z,1.00
2022-08-30T15:30:25.174Z,1.17
2022-08-30T15:32:51.970Z,1.00
2022-08-30T15:35:18.685Z,1.08
2022-08-30T15:37:45.300Z,1.25
2022-08-30T15:40:12.098Z,1.35
2022-08-30T15:42:39.684Z,0.90
2022-08-30T15:45:07.009Z,0.98
2022-08-30T15:47:33.713Z,0.80
2022-08-30T15:50:03.852Z,1.05
2022-08-30T15:52:31.148Z,1.10
2022-08-30T15:54:58.027Z,1.08
2022-08-30T15:57:25.207Z,0.90
2022-08-30T15:59:52.069Z,1.27
2022-08-30T16:02:18.751Z,1.33
2022-08-30T16:04:46.490Z,0.90
2022-08-30T16:07:13.540Z,1.00
2022-08-30T16:09:40.863Z,0.80
2022-08-30T16:12:08.576Z,0.80
2022-08-30T16:14:36.596Z,1.10
2022-08-30T16:17:03.747Z,1.05
2022-08-30T16:19:31.560Z,0.90
2022-08-30T16:21:58.900Z,1.00
2022-08-30T16:24:25.998Z,1.08
2022-08-30T16:26:53.209Z,0.93
2022-08-30T16:29:20.136Z,0.80
2022-08-30T16:31:47.379Z,1.10
2022-08-30T16:34:16.428Z,1.20
2022-08-30T16:36:43.664Z,0.98
2022-08-30T16:39:12.784Z,1.10
2022-08-30T16:41:40.009Z,1.20
2022-08-30T16:44:07.199Z,1.20
2022-08-30T16:46:35.925Z,0.90
2022-08-30T16:49:03.453Z,1.00
2022-08-30T16:51:31.996Z,1.10
2022-08-30T16:54:00.253Z,1.00
2022-08-30T16:56:29.770Z,0.90
2022-08-30T16:59:01.712Z,1.17
2022-08-30T17:01:31.456Z,1.23
2022-08-30T17:03:58.336Z,0.80
2022-08-30T17:06:25.059Z,0.80
2022-08-30T17:08:55.765Z,0.90
2022-08-30T17:11:23.354Z,1.30
2022-08-30T17:16:37.225Z,1.10
2022-08-30T17:19:05.105Z,1.00
2022-08-30T17:21:32.325Z,1.13
2022-08-30T17:24:02.164Z,1.77
2022-08-30T17:26:35.353Z,1.80
2022-08-30T17:29:02.582Z,1.38
2022-08-30T17:31:30.930Z,1.10
2022-08-30T17:34:02.983Z,1.15
2022-08-30T17:36:31.987Z,1.27
2022-08-30T17:38:58.589Z,1.35
2022-08-30T17:41:25.287Z,1.52
2022-08-30T17:43:51.943Z,1.50
2022-08-30T17:46:20.641Z,1.30
2022-08-30T17:48:47.707Z,1.20
2022-08-30T17:51:24.492Z,1.00
2022-08-30T17:53:51.098Z,1.10
2022-08-30T17:56:17.874Z,1.60
2022-08-30T17:58:44.456Z,2.03
2022-08-30T18:01:14.242Z,1.55
2022-08-30T18:03:42.245Z,2.13
2022-08-30T18:06:12.898Z,1.90
2022-08-30T18:08:39.916Z,2.30
2022-08-30T18:11:07.246Z,2.20
2022-08-30T18:13:34.172Z,1.77
2022-08-30T18:16:04.577Z,1.10
2022-08-30T18:18:32.314Z,1.40
2022-08-30T18:20:59.001Z,1.10
2022-08-30T18:23:26.903Z,1.10
2022-08-30T18:25:56.780Z,1.00
2022-08-30T18:28:23.789Z,1.13
2022-08-30T18:30:50.613Z,1.00
2022-08-30T18:33:18.380Z,1.08
2022-08-30T18:35:48.361Z,1.25
2022-08-30T18:38:15.765Z,0.90
2022-08-30T18:40:44.883Z,1.13
2022-08-30T18:43:12.093Z,1.15
2022-08-30T18:45:41.849Z,1.13
2022-08-30T18:48:08.485Z,1.05
2022-08-30T18:50:36.438Z,1.02
2022-08-30T18:53:03.327Z,0.90
2022-08-30T18:55:29.942Z,1.10
2022-08-30T18:57:56.708Z,1.20
2022-08-30T19:00:23.727Z,1.00
2022-08-30T19:02:50.418Z,1.00
2022-08-30T19:05:18.936Z,1.20
2022-08-30T19:10:14.323Z,0.80
2022-08-30T19:12:41.032Z,1.00
2022-08-30T19:15:11.113Z,0.93
2022-08-30T19:17:40.733Z,0.85
2022-08-30T19:20:09.917Z,1.00
2022-08-30T19:23:03.717Z,0.93
2022-08-30T19:25:24.521Z,1.00
2022-08-30T19:27:51.734Z,1.00
2022-08-30T19:30:23.149Z,0.95
2022-08-30T19:32:52.957Z,0.95
2022-08-30T19:35:19.891Z,0.90
2022-08-30T19:37:46.562Z,0.90
2022-08-30T19:40:17.131Z,1.00
2022-08-30T19:42:45.924Z,1.00
2022-08-30T19:45:15.275Z,1.02
2022-08-30T19:47:41.879Z,0.98
2022-08-30T19:50:08.808Z,1.20
2022-08-30T19:52:36.391Z,1.48
2022-08-30T19:55:05.594Z,0.85
2022-08-30T19:57:32.436Z,1.00
2022-08-30T19:59:59.732Z,1.05
2022-08-30T20:02:27.124Z,0.80
2022-08-30T20:04:54.357Z,0.77
2022-08-30T20:07:27.331Z,1.00
2022-08-30T20:09:54.835Z,0.80
2022-08-30T20:12:21.432Z,0.85
2022-08-30T20:14:48.546Z,0.70
2022-08-30T20:17:15.461Z,0.88
2022-08-30T20:19:42.265Z,0.85
2022-08-30T20:22:09.004Z,0.90
2022-08-30T20:24:23.415Z,1.08
2022-08-30T20:27:08.313Z,0.90
2022-08-30T20:29:35.040Z,0.80
2022-08-30T20:32:03.255Z,1.00
2022-08-30T20:34:29.985Z,0.90
2022-08-30T20:36:57.260Z,0.90
2022-08-30T20:39:24.229Z,0.93
2022-08-30T20:41:51.063Z,0.90
2022-08-30T20:44:18.620Z,0.80
2022-08-30T20:46:46.926Z,0.90
2022-08-30T20:49:13.954Z,0.98
2022-08-30T20:51:40.799Z,1.10
2022-08-30T20:54:07.618Z,0.95
2022-08-30T20:56:34.512Z,1.00
2022-08-30T20:59:02.806Z,0.93
2022-08-30T21:01:31.872Z,0.88
2022-08-30T21:03:58.537Z,1.15
2022-08-30T21:06:25.383Z,1.10
2022-08-30T21:08:52.436Z,1.20
2022-08-30T21:11:19.706Z,1.20
2022-08-30T21:13:48.404Z,1.10
2022-08-30T21:16:17.701Z,1.02
2022-08-30T21:18:48.658Z,1.15
2022-08-30T21:21:25.553Z,1.00
2022-08-30T21:23:53.647Z,1.05
2022-08-30T21:26:21.017Z,0.90
2022-08-30T21:28:48.801Z,1.13
2022-08-30T21:31:18.824Z,0.98
2022-08-30T21:33:47.904Z,1.15
2022-08-30T21:36:33.570Z,1.10
2022-08-30T21:39:00.571Z,1.00
2022-08-30T21:41:28.629Z,1.00
2022-08-30T21:44:04.556Z,0.90
2022-08-30T21:46:32.395Z,1.30
2022-08-30T21:49:01.433Z,1.00
2022-08-30T21:51:29.582Z,1.08
2022-08-30T21:53:57.690Z,1.15
2022-08-30T21:56:24.559Z,1.10
2022-08-30T21:58:51.756Z,0.98
2022-08-30T22:01:23.656Z,1.08
2022-08-30T22:03:52.626Z,1.20
2022-08-30T22:06:19.668Z,1.17
2022-08-30T22:08:47.296Z,1.05
2022-08-30T22:11:21.817Z,1.00
2022-08-30T22:13:50.170Z,1.02
2022-08-30T22:16:17.401Z,1.00
2022-08-30T22:18:44.809Z,0.90
2022-08-30T22:21:13.883Z,0.98
2022-08-30T22:23:40.793Z,1.17
2022-08-30T22:26:09.744Z,1.00
2022-08-30T22:28:36.801Z,1.00
2022-08-30T22:31:08.804Z,0.90
2022-08-30T22:33:36.041Z,1.25
2022-08-30T22:36:08.215Z,1.00
2022-08-30T22:38:34.877Z,1.00
2022-08-30T22:41:01.827Z,1.00
2022-08-30T22:43:28.661Z,1.15
2022-08-30T22:45:57.077Z,1.00
2022-08-30T22:50:50.256Z,1.08
2022-08-30T22:53:16.994Z,1.17
2022-08-30T22:55:43.674Z,0.80
2022-08-30T22:58:10.267Z,0.95
2022-08-30T23:00:39.316Z,1.10
2022-08-30T23:03:05.895Z,1.20
2022-08-30T23:05:32.594Z,0.93
2022-08-30T23:07:59.903Z,2.03
2022-08-30T23:10:28.267Z,1.08
2022-08-30T23:12:55.972Z,1.08
2022-08-30T23:15:23.315Z,1.00
2022-08-30T23:17:50.578Z,0.80
2022-08-30T23:20:17.413Z,0.90
2022-08-30T23:22:44.053Z,1.15
2022-08-30T23:25:30.137Z,0.82
2022-08-30T23:28:20.695Z,1.00
2022-08-30T23:31:06.129Z,1.00
2022-08-30T23:33:51.316Z,0.90
2022-08-30T23:36:36.568Z,1.20
2022-08-30T23:39:22.632Z,0.90
2022-08-30T23:42:07.961Z,0.98
2022-08-30T23:44:53.163Z,1.00
2022-08-30T23:47:38.354Z,0.80
2022-08-30T23:50:24.192Z,0.70
2022-08-30T23:53:09.264Z,0.68
2022-08-30T23:55:57.065Z,0.70
2022-08-30T23:58:42.268Z,0.80
